TAF KCSV
KCSV 081720Z 0818/0918 30007KT P6SM SCT250 FM090000 12003KT P6SM BKN250=
METAR KCSV
WC KCSV
WS KCSV
WV KCSV